createdAt,value
2019-04-21T00:01:03.445Z,13.07
2019-04-21T00:01:59.674Z,13.02
2019-04-21T00:03:01.869Z,13.03
2019-04-21T00:04:12.482Z,13.02
2019-04-21T00:05:20.016Z,13.00
2019-04-21T00:06:20.117Z,13.02
2019-04-21T00:07:21.339Z,12.85
2019-04-21T00:08:25.852Z,12.95
2019-04-21T00:09:29.371Z,12.85
2019-04-21T00:10:18.725Z,12.85
2019-04-21T00:11:22.273Z,12.77
2019-04-21T00:12:18.249Z,12.79
2019-04-21T00:13:12.012Z,12.79
2019-04-21T00:14:11.358Z,12.75
2019-04-21T00:15:09.659Z,12.59
2019-04-21T00:16:05.134Z,12.52
2019-04-21T00:17:06.154Z,12.54
2019-04-21T00:18:02.411Z,12.44
2019-04-21T00:19:07.197Z,12.27
2019-04-21T00:20:11.486Z,12.37
2019-04-21T00:21:12.339Z,12.24
2019-04-21T00:22:08.569Z,12.23
2019-04-21T00:23:19.825Z,12.29
2019-04-21T00:24:12.123Z,12.24
2019-04-21T00:25:16.334Z,12.26
2019-04-21T00:26:16.406Z,12.30
2019-04-21T00:27:15.602Z,12.26
2019-04-21T00:28:28.861Z,12.23
2019-04-21T00:29:27.547Z,12.19
2019-04-21T00:30:21.398Z,12.13
2019-04-21T00:31:15.075Z,12.11
2019-04-21T00:32:16.699Z,12.06
2019-04-21T00:33:06.838Z,12.02
2019-04-21T00:33:58.812Z,11.94
2019-04-21T00:35:04.678Z,12.02
2019-04-21T00:36:05.394Z,11.90
2019-04-21T00:37:09.464Z,11.90
2019-04-21T00:38:17.079Z,11.96
2019-04-21T00:39:30.183Z,11.90
2019-04-21T00:40:25.635Z,11.74
2019-04-21T00:41:22.988Z,11.87
2019-04-21T00:42:18.201Z,11.78
2019-04-21T00:43:15.062Z,11.77
2019-04-21T00:44:13.129Z,11.82
2019-04-21T00:45:16.458Z,11.85
2019-04-21T00:46:08.494Z,11.89
2019-04-21T00:47:18.038Z,11.74
2019-04-21T00:48:23.621Z,11.70
2019-04-21T00:49:16.918Z,11.70
2019-04-21T00:50:17.942Z,11.67
2019-04-21T00:52:31.718Z,11.56
2019-04-21T00:53:32.060Z,11.61
2019-04-21T00:54:29.581Z,11.54
2019-04-21T00:56:23.234Z,11.53
2019-04-21T00:57:25.225Z,11.57
2019-04-21T00:58:24.138Z,11.54
2019-04-21T00:59:19.310Z,11.53
2019-04-21T01:00:22.306Z,11.54
2019-04-21T01:01:21.224Z,11.54
2019-04-21T01:02:19.907Z,11.56
2019-04-21T01:03:20.699Z,11.59
2019-04-21T01:04:23.500Z,11.64
2019-04-21T01:05:21.466Z,11.67
2019-04-21T01:06:22.689Z,11.65
2019-04-21T01:07:22.124Z,11.70
2019-04-21T01:08:23.488Z,11.72
2019-04-21T01:09:13.545Z,11.64
2019-04-21T01:10:09.326Z,11.77
2019-04-21T01:11:19.225Z,11.65
2019-04-21T01:12:23.291Z,11.67
2019-04-21T01:13:23.561Z,11.65
2019-04-21T01:14:29.791Z,11.59
2019-04-21T01:15:27.672Z,11.65
2019-04-21T01:16:22.272Z,11.71
2019-04-21T01:17:22.945Z,11.70
2019-04-21T01:18:20.644Z,11.54
2019-04-21T01:19:16.801Z,11.54
2019-04-21T01:20:12.998Z,11.52
2019-04-21T01:20:58.301Z,11.49
2019-04-21T01:21:57.301Z,11.49
2019-04-21T01:22:57.796Z,11.46
2019-04-21T01:24:06.003Z,11.44
2019-04-21T01:25:09.074Z,11.38
2019-04-21T01:26:13.327Z,11.27
2019-04-21T01:27:06.470Z,11.16
2019-04-21T01:28:13.510Z,11.20
2019-04-21T01:29:11.976Z,11.24
2019-04-21T01:30:16.500Z,11.07
2019-04-21T01:31:17.541Z,11.03
2019-04-21T01:32:37.469Z,10.99
2019-04-21T01:33:21.661Z,10.96
2019-04-21T01:34:23.309Z,10.81
2019-04-21T01:35:17.783Z,10.68
2019-04-21T01:36:13.998Z,10.70
2019-04-21T01:37:15.835Z,10.55
2019-04-21T01:38:22.657Z,10.51
2019-04-21T01:39:22.472Z,10.58
2019-04-21T01:40:22.933Z,10.53
2019-04-21T01:41:21.783Z,10.56
2019-04-21T01:42:18.875Z,10.59
2019-04-21T01:43:22.171Z,10.63
2019-04-21T01:44:14.882Z,10.59
2019-04-21T01:45:20.038Z,10.60
2019-04-21T01:46:14.163Z,10.59
2019-04-21T01:47:10.274Z,10.62
2019-04-21T01:48:12.588Z,10.59
2019-04-21T01:49:07.724Z,10.58
2019-04-21T01:50:09.637Z,10.53
2019-04-21T01:51:17.105Z,10.46
2019-04-21T01:52:34.456Z,10.59
2019-04-21T01:53:27.448Z,10.46
2019-04-21T01:54:27.546Z,10.52
2019-04-21T01:55:18.387Z,10.43
2019-04-21T01:56:17.014Z,10.59
2019-04-21T01:57:17.668Z,10.55
2019-04-21T01:58:11.551Z,10.56
2019-04-21T01:59:07.355Z,10.58
2019-04-21T02:00:10.413Z,10.53
2019-04-21T02:01:22.797Z,10.52
2019-04-21T02:02:18.418Z,10.52
2019-04-21T02:03:34.399Z,10.44
2019-04-21T02:04:24.450Z,10.39
2019-04-21T02:05:28.355Z,10.34
2019-04-21T02:06:22.777Z,10.28
2019-04-21T02:07:15.074Z,10.26
2019-04-21T02:08:20.093Z,10.12
2019-04-21T02:10:21.142Z,10.07
2019-04-21T02:11:23.114Z,10.14
2019-04-21T02:12:19.975Z,10.22
2019-04-21T02:13:17.114Z,10.26
2019-04-21T02:14:23.017Z,10.25
2019-04-21T02:15:36.466Z,10.15
2019-04-21T02:16:21.508Z,10.18
2019-04-21T02:17:17.347Z,10.21
2019-04-21T02:18:19.111Z,10.14
2019-04-21T02:19:12.556Z,10.14
2019-04-21T02:20:12.187Z,10.21
2019-04-21T02:21:10.839Z,10.17
2019-04-21T02:22:19.295Z,10.15
2019-04-21T02:23:26.442Z,10.12
2019-04-21T02:24:23.930Z,10.10
2019-04-21T02:25:22.770Z,10.10
2019-04-21T02:27:20.207Z,10.04
2019-04-21T02:28:24.026Z,10.03
2019-04-21T02:29:24.736Z,10.01
2019-04-21T02:30:29.645Z,10.00
2019-04-21T02:31:29.120Z,10.03
2019-04-21T02:32:26.230Z,9.96
2019-04-21T02:33:45.878Z,9.88
2019-04-21T02:34:29.589Z,9.86
2019-04-21T02:35:38.428Z,9.83
2019-04-21T02:37:42.544Z,9.75
2019-04-21T02:38:36.326Z,9.85
2019-04-21T02:39:25.041Z,9.91
2019-04-21T02:40:30.227Z,9.73
2019-04-21T02:41:32.993Z,9.75
2019-04-21T02:42:31.121Z,9.73
2019-04-21T02:43:24.936Z,9.79
2019-04-21T02:44:35.331Z,9.82
2019-04-21T02:46:35.327Z,9.71
2019-04-21T02:47:41.725Z,9.75
2019-04-21T02:48:34.988Z,9.79
2019-04-21T02:49:37.750Z,9.75
2019-04-21T02:50:25.948Z,9.70
2019-04-21T02:53:48.254Z,9.64
2019-04-21T02:55:31.189Z,9.63
2019-04-21T02:56:44.202Z,9.50
2019-04-21T02:58:34.586Z,9.45
2019-04-21T03:00:30.285Z,9.35
2019-04-21T03:01:38.213Z,9.20
2019-04-21T03:02:34.975Z,9.23
2019-04-21T03:03:33.984Z,9.18
2019-04-21T03:04:36.170Z,9.15
2019-04-21T03:05:43.275Z,9.10
2019-04-21T03:06:32.917Z,9.01
2019-04-21T03:08:40.353Z,8.83
2019-04-21T03:10:37.617Z,8.79
2019-04-21T03:11:39.802Z,8.84
2019-04-21T03:12:22.640Z,8.69
2019-04-21T03:13:29.945Z,8.71
2019-04-21T03:14:35.970Z,8.68
2019-04-21T03:15:28.959Z,8.71
2019-04-21T03:17:32.723Z,8.69
2019-04-21T03:19:40.892Z,8.58
2019-04-21T03:22:25.082Z,8.69
2019-04-21T03:23:32.004Z,8.78
2019-04-21T03:24:31.429Z,8.68
2019-04-21T03:26:38.206Z,8.91
2019-04-21T03:27:52.795Z,8.86
2019-04-21T03:28:30.527Z,8.91
2019-04-21T03:29:28.283Z,8.87
2019-04-21T03:30:44.102Z,8.91
2019-04-21T03:31:49.622Z,8.87
2019-04-21T03:36:04.559Z,8.57
2019-04-21T03:37:39.891Z,8.54
2019-04-21T03:38:27.041Z,8.50
2019-04-21T03:39:29.499Z,8.54
2019-04-21T03:41:30.554Z,8.54
2019-04-21T03:43:28.168Z,8.62
2019-04-21T03:45:30.938Z,8.54
2019-04-21T03:48:33.975Z,8.57
2019-04-21T03:50:27.685Z,8.58
2019-04-21T03:51:27.352Z,8.62
2019-04-21T03:52:37.052Z,8.51
2019-04-21T03:53:33.928Z,8.47
2019-04-21T03:54:30.500Z,8.45
2019-04-21T03:56:52.400Z,8.42
2019-04-21T03:57:38.732Z,8.39
2019-04-21T03:59:19.831Z,8.37
2019-04-21T04:00:42.526Z,8.33
2019-04-21T04:02:35.005Z,8.29
2019-04-21T04:03:42.209Z,8.11
2019-04-21T04:04:31.876Z,8.12
2019-04-21T04:05:36.279Z,8.11
2019-04-21T04:06:33.976Z,8.04
2019-04-21T04:07:35.018Z,8.11
2019-04-21T04:08:43.606Z,8.00
2019-04-21T04:09:41.813Z,7.99
2019-04-21T04:10:24.497Z,7.93
2019-04-21T04:12:28.528Z,7.96
2019-04-21T04:13:39.180Z,7.87
2019-04-21T04:14:34.269Z,7.79
2019-04-21T04:15:35.164Z,7.81
2019-04-21T04:16:31.294Z,7.85
2019-04-21T04:17:26.634Z,7.89
2019-04-21T04:18:39.373Z,7.89
2019-04-21T04:19:36.209Z,7.90
2019-04-21T04:20:28.263Z,7.82
2019-04-21T04:23:31.554Z,7.74
2019-04-21T04:24:34.340Z,7.72
2019-04-21T04:25:42.864Z,7.82
2019-04-21T04:26:31.645Z,7.62
2019-04-21T04:28:31.564Z,7.69
2019-04-21T04:29:26.385Z,7.55
2019-04-21T04:31:37.585Z,7.52
2019-04-21T04:32:28.700Z,7.58
2019-04-21T04:33:39.209Z,7.49
2019-04-21T04:34:35.933Z,7.40
2019-04-21T04:35:34.128Z,7.37
2019-04-21T04:36:47.429Z,7.38
2019-04-21T04:37:32.095Z,7.37
2019-04-21T04:39:42.750Z,7.40
2019-04-21T04:40:41.567Z,7.35
2019-04-21T04:41:34.953Z,7.27
2019-04-21T04:43:24.937Z,7.24
2019-04-21T04:44:39.494Z,7.26
2019-04-21T04:46:28.589Z,7.35
2019-04-21T04:49:39.065Z,7.60
2019-04-21T04:50:34.033Z,7.59
2019-04-21T04:51:37.937Z,7.67
2019-04-21T04:52:32.657Z,7.58
2019-04-21T04:53:31.044Z,7.71
2019-04-21T04:54:38.728Z,7.74
2019-04-21T04:55:31.988Z,7.72
2019-04-21T04:58:35.615Z,7.75
2019-04-21T04:59:41.466Z,7.82
2019-04-21T05:00:34.897Z,7.92
2019-04-21T05:01:32.901Z,7.90
2019-04-21T05:03:39.576Z,8.08
2019-04-21T05:04:37.907Z,8.15
2019-04-21T05:05:30.031Z,8.11
2019-04-21T05:08:49.353Z,8.33
2019-04-21T05:09:23.450Z,8.42
2019-04-21T05:12:23.593Z,8.48
2019-04-21T05:13:26.239Z,8.40
2019-04-21T05:14:23.068Z,8.48
2019-04-21T05:15:21.686Z,8.48
2019-04-21T05:16:39.823Z,8.53
2019-04-21T05:17:28.720Z,8.55
2019-04-21T05:18:24.359Z,8.57
2019-04-21T05:19:21.095Z,8.71
2019-04-21T05:20:31.091Z,8.65
2019-04-21T05:21:30.690Z,8.84
2019-04-21T05:23:19.594Z,8.79
2019-04-21T05:24:13.694Z,8.76
2019-04-21T05:25:15.168Z,8.88
2019-04-21T05:26:09.989Z,8.86
2019-04-21T05:27:12.531Z,8.83
2019-04-21T05:28:09.055Z,8.86
2019-04-21T05:29:10.587Z,8.96
2019-04-21T05:30:21.961Z,9.02
2019-04-21T05:31:19.832Z,9.04
2019-04-21T05:32:21.908Z,9.12
2019-04-21T05:33:18.778Z,9.18
2019-04-21T05:34:17.145Z,9.21
2019-04-21T05:35:16.953Z,9.31
2019-04-21T05:36:13.148Z,9.43
2019-04-21T05:37:18.778Z,9.46
2019-04-21T05:38:17.725Z,9.58
2019-04-21T05:39:08.910Z,9.71
2019-04-21T05:40:10.531Z,9.73
2019-04-21T05:41:06.582Z,9.96
2019-04-21T05:42:03.940Z,10.10
2019-04-21T05:43:17.586Z,10.15
2019-04-21T05:44:19.287Z,10.37
2019-04-21T05:45:17.429Z,10.55
2019-04-21T05:46:21.755Z,10.62
2019-04-21T05:47:29.904Z,10.77
2019-04-21T05:48:23.182Z,10.84
2019-04-21T05:49:18.116Z,10.94
2019-04-21T05:50:12.189Z,11.25
2019-04-21T05:51:18.823Z,11.38
2019-04-21T05:52:09.481Z,11.62
2019-04-21T05:53:24.284Z,11.85
2019-04-21T05:54:22.977Z,11.93
2019-04-21T05:55:17.780Z,12.06
2019-04-21T05:56:19.226Z,12.21
2019-04-21T05:57:14.984Z,12.42
2019-04-21T05:58:11.258Z,12.49
2019-04-21T05:59:13.526Z,12.70
2019-04-21T06:00:33.458Z,12.78
2019-04-21T06:01:23.796Z,12.93
2019-04-21T06:03:17.652Z,13.27
2019-04-21T06:04:36.234Z,13.43
2019-04-21T06:05:30.155Z,13.52
2019-04-21T06:06:20.433Z,13.69
2019-04-21T06:08:17.943Z,13.88
2019-04-21T06:09:23.980Z,13.91
2019-04-21T06:10:12.402Z,13.98
2019-04-21T06:11:23.883Z,14.19
2019-04-21T06:12:18.283Z,14.28
2019-04-21T06:13:29.558Z,14.39
2019-04-21T06:14:20.313Z,14.60
2019-04-21T06:15:27.077Z,14.67
2019-04-21T06:16:20.139Z,14.74
2019-04-21T06:17:28.436Z,14.80
2019-04-21T06:18:21.405Z,14.81
2019-04-21T06:19:27.539Z,14.93
2019-04-21T06:20:20.944Z,15.03
2019-04-21T06:21:16.436Z,15.11
2019-04-21T06:22:13.840Z,15.08
2019-04-21T06:23:20.330Z,15.12
2019-04-21T06:24:15.993Z,15.12
2019-04-21T06:25:41.010Z,15.13
2019-04-21T06:26:46.279Z,15.19
2019-04-21T06:27:26.320Z,15.24
2019-04-21T06:28:22.690Z,15.27
2019-04-21T06:29:15.422Z,15.28
2019-04-21T06:30:10.391Z,15.43
2019-04-21T06:31:27.147Z,15.51
2019-04-21T06:32:30.405Z,15.61
2019-04-21T06:33:20.239Z,15.78
2019-04-21T06:34:16.630Z,15.89
2019-04-21T06:35:28.885Z,16.12
2019-04-21T06:37:41.819Z,16.41
2019-04-21T06:38:28.232Z,16.40
2019-04-21T06:39:18.282Z,16.41
2019-04-21T06:40:24.512Z,16.30
2019-04-21T06:41:21.442Z,16.26
2019-04-21T06:42:14.758Z,16.06
2019-04-21T06:43:28.909Z,16.09
2019-04-21T06:44:16.799Z,16.23
2019-04-21T06:45:25.421Z,16.40
2019-04-21T06:46:25.843Z,16.73
2019-04-21T06:47:26.025Z,16.88
2019-04-21T06:48:18.461Z,16.78
2019-04-21T06:49:14.293Z,16.53
2019-04-21T06:50:23.966Z,16.62
2019-04-21T06:51:25.504Z,16.68
2019-04-21T06:53:23.812Z,17.07
2019-04-21T06:54:16.172Z,17.29
2019-04-21T06:55:20.457Z,17.32
2019-04-21T06:56:23.547Z,17.14
2019-04-21T06:57:16.795Z,17.25
2019-04-21T06:58:19.606Z,17.46
2019-04-21T06:59:13.506Z,17.53
2019-04-21T07:00:11.742Z,17.43
2019-04-21T07:01:16.122Z,17.40
2019-04-21T07:02:30.659Z,16.99
2019-04-21T07:03:19.264Z,16.73
2019-04-21T07:05:20.343Z,16.15
2019-04-21T07:06:13.069Z,16.31
2019-04-21T07:07:17.166Z,16.31
2019-04-21T07:08:34.566Z,16.37
2019-04-21T07:09:20.363Z,16.06
2019-04-21T07:10:15.350Z,15.88
2019-04-21T07:11:14.960Z,16.01
2019-04-21T07:12:13.771Z,16.25
2019-04-21T07:13:21.149Z,16.37
2019-04-21T07:15:22.381Z,16.26
2019-04-21T07:16:19.416Z,16.33
2019-04-21T07:17:19.909Z,16.25
2019-04-21T07:18:20.875Z,16.25
2019-04-21T07:19:23.769Z,16.26
2019-04-21T07:20:18.838Z,16.16
2019-04-21T07:21:14.377Z,16.16
2019-04-21T07:22:22.973Z,16.44
2019-04-21T07:23:16.101Z,16.71
2019-04-21T07:24:22.728Z,17.00
2019-04-21T07:25:13.832Z,17.17
2019-04-21T07:26:21.034Z,17.23
2019-04-21T07:27:18.957Z,17.51
2019-04-21T07:28:17.693Z,17.76
2019-04-21T07:29:21.957Z,17.92
2019-04-21T07:30:23.095Z,18.09
2019-04-21T07:31:22.781Z,18.29
2019-04-21T07:32:14.049Z,18.55
2019-04-21T07:33:44.693Z,18.46
2019-04-21T07:34:22.278Z,18.19
2019-04-21T07:35:15.028Z,17.85
2019-04-21T07:36:22.139Z,17.51
2019-04-21T07:37:11.630Z,17.36
2019-04-21T07:38:16.686Z,17.25
2019-04-21T07:39:12.055Z,17.33
2019-04-21T07:40:09.444Z,17.17
2019-04-21T07:41:09.158Z,17.22
2019-04-21T07:42:13.376Z,17.28
2019-04-21T07:43:12.166Z,17.46
2019-04-21T07:44:10.397Z,17.50
2019-04-21T07:45:12.987Z,17.64
2019-04-21T07:46:10.708Z,17.73
2019-04-21T07:47:15.579Z,17.54
2019-04-21T07:48:16.089Z,17.43
2019-04-21T07:49:15.815Z,17.35
2019-04-21T07:50:14.776Z,17.40
2019-04-21T07:51:18.886Z,17.67
2019-04-21T07:52:18.870Z,17.84
2019-04-21T07:53:21.200Z,18.24
2019-04-21T07:54:20.129Z,18.46
2019-04-21T07:55:59.494Z,18.80
2019-04-21T07:57:11.635Z,18.77
2019-04-21T07:58:17.832Z,18.65
2019-04-21T07:59:24.350Z,18.65
2019-04-21T08:01:19.917Z,18.82
2019-04-21T08:02:18.550Z,18.80
2019-04-21T08:03:15.614Z,18.91
2019-04-21T08:04:31.953Z,18.97
2019-04-21T08:06:19.052Z,18.99
2019-04-21T08:07:21.922Z,18.58
2019-04-21T08:08:12.025Z,18.39
2019-04-21T08:09:12.299Z,18.19
2019-04-21T08:10:11.995Z,18.27
2019-04-21T08:11:10.933Z,18.46
2019-04-21T08:12:08.066Z,18.57
2019-04-21T08:13:25.191Z,18.82
2019-04-21T08:14:19.613Z,18.86
2019-04-21T08:15:21.797Z,18.62
2019-04-21T08:16:20.393Z,18.42
2019-04-21T08:17:14.268Z,18.46
2019-04-21T08:18:17.205Z,18.46
2019-04-21T08:19:13.364Z,18.25
2019-04-21T08:20:15.641Z,18.09
2019-04-21T08:21:11.004Z,18.31
2019-04-21T08:22:17.063Z,18.39
2019-04-21T08:23:13.150Z,18.42
2019-04-21T08:24:14.962Z,18.50
2019-04-21T08:25:15.159Z,18.49
2019-04-21T08:26:31.172Z,18.50
2019-04-21T08:27:20.260Z,18.62
2019-04-21T08:28:15.869Z,18.79
2019-04-21T08:29:18.911Z,18.97
2019-04-21T08:30:13.723Z,19.25
2019-04-21T08:31:14.328Z,19.40
2019-04-21T08:32:17.267Z,19.46
2019-04-21T08:33:38.271Z,19.61
2019-04-21T08:34:14.111Z,19.69
2019-04-21T08:35:34.263Z,19.68
2019-04-21T08:37:15.062Z,19.69
2019-04-21T08:38:15.175Z,19.80
2019-04-21T08:39:12.996Z,19.93
2019-04-21T08:40:17.672Z,19.73
2019-04-21T08:41:17.003Z,19.70
2019-04-21T08:42:11.904Z,19.79
2019-04-21T08:43:20.775Z,19.87
2019-04-21T08:44:10.534Z,20.16
2019-04-21T08:45:15.233Z,20.30
2019-04-21T08:46:13.562Z,20.50
2019-04-21T08:47:15.384Z,20.23
2019-04-21T08:48:37.159Z,20.10
2019-04-21T08:49:15.536Z,20.15
2019-04-21T08:50:15.143Z,20.23
2019-04-21T08:52:20.973Z,20.65
2019-04-21T08:53:14.449Z,20.65
2019-04-21T08:54:15.059Z,20.76
2019-04-21T08:55:21.777Z,20.83
2019-04-21T08:56:18.442Z,20.71
2019-04-21T08:57:15.280Z,20.56
2019-04-21T08:59:21.913Z,20.71
2019-04-21T09:01:20.592Z,21.17
2019-04-21T09:02:16.489Z,21.20
2019-04-21T09:03:16.997Z,21.08
2019-04-21T09:04:13.195Z,20.81
2019-04-21T09:05:15.550Z,20.72
2019-04-21T09:06:13.847Z,20.39
2019-04-21T09:07:13.159Z,20.34
2019-04-21T09:08:12.013Z,20.18
2019-04-21T09:09:34.004Z,19.94
2019-04-21T09:10:10.340Z,19.86
2019-04-21T09:11:12.803Z,19.87
2019-04-21T09:12:10.346Z,19.88
2019-04-21T09:13:10.154Z,20.12
2019-04-21T09:14:13.956Z,20.25
2019-04-21T09:15:15.868Z,20.49
2019-04-21T09:16:08.496Z,20.62
2019-04-21T09:17:08.296Z,20.58
2019-04-21T09:18:08.830Z,20.56
2019-04-21T09:19:11.811Z,20.68
2019-04-21T09:20:20.549Z,20.76
2019-04-21T09:21:14.902Z,20.84
2019-04-21T09:22:12.822Z,20.79
2019-04-21T09:23:13.375Z,20.87
2019-04-21T09:24:11.623Z,20.91
2019-04-21T09:25:13.533Z,20.89
2019-04-21T09:26:13.857Z,20.69
2019-04-21T09:27:08.410Z,20.50
2019-04-21T09:28:11.176Z,20.46
2019-04-21T09:29:07.072Z,20.42
2019-04-21T09:29:57.618Z,20.66
2019-04-21T09:30:57.827Z,20.71
2019-04-21T09:31:57.237Z,20.76
2019-04-21T09:32:56.389Z,20.68
2019-04-21T09:33:54.438Z,20.69
2019-04-21T09:34:52.978Z,20.76
2019-04-21T09:35:58.830Z,20.96
2019-04-21T09:37:09.994Z,21.16
2019-04-21T09:38:00.377Z,21.46
2019-04-21T09:39:00.065Z,21.57
2019-04-21T09:39:55.915Z,21.69
2019-04-21T09:40:54.505Z,21.51
2019-04-21T09:41:54.449Z,21.46
2019-04-21T09:42:59.271Z,21.46
2019-04-21T09:43:55.864Z,21.51
2019-04-21T09:44:55.677Z,21.56
2019-04-21T09:45:54.138Z,21.61
2019-04-21T09:46:54.840Z,21.45
2019-04-21T09:48:00.793Z,21.45
2019-04-21T09:48:59.013Z,21.41
2019-04-21T09:49:52.834Z,21.20
2019-04-21T09:50:52.465Z,21.20
2019-04-21T09:51:52.900Z,21.21
2019-04-21T09:52:57.739Z,21.21
2019-04-21T09:54:00.882Z,21.04
2019-04-21T09:55:03.443Z,20.89
2019-04-21T09:55:58.166Z,20.99
2019-04-21T09:56:58.573Z,21.01
2019-04-21T09:57:56.958Z,21.06
2019-04-21T09:59:03.830Z,20.81
2019-04-21T10:00:04.036Z,20.61
2019-04-21T10:01:06.208Z,20.46
2019-04-21T10:02:05.639Z,20.39
2019-04-21T10:03:00.560Z,20.39
2019-04-21T10:03:57.267Z,20.54
2019-04-21T10:04:52.794Z,20.71
2019-04-21T10:05:51.973Z,20.93
2019-04-21T10:06:51.960Z,21.08
2019-04-21T10:07:53.021Z,21.27
2019-04-21T10:09:00.942Z,21.44
2019-04-21T10:09:52.608Z,21.46
2019-04-21T10:10:51.596Z,21.51
2019-04-21T10:11:52.702Z,21.19
2019-04-21T10:12:51.992Z,21.24
2019-04-21T10:13:52.924Z,21.17
2019-04-21T10:14:51.861Z,21.23
2019-04-21T10:15:51.966Z,21.29
2019-04-21T10:16:51.645Z,21.20
2019-04-21T10:17:51.989Z,21.35
2019-04-21T10:18:52.406Z,21.44
2019-04-21T10:19:52.759Z,21.48
2019-04-21T10:20:51.489Z,21.72
2019-04-21T10:21:52.072Z,21.76
2019-04-21T10:22:51.467Z,21.74
2019-04-21T10:23:52.168Z,21.76
2019-04-21T10:24:52.173Z,21.94
2019-04-21T10:25:52.556Z,22.02
2019-04-21T10:26:51.480Z,22.07
2019-04-21T10:27:52.751Z,21.99
2019-04-21T10:28:51.403Z,21.76
2019-04-21T10:29:52.270Z,21.59
2019-04-21T10:30:51.381Z,21.63
2019-04-21T10:31:52.429Z,21.61
2019-04-21T10:32:52.447Z,21.63
2019-04-21T10:33:52.523Z,21.63
2019-04-21T10:34:51.339Z,21.53
2019-04-21T10:35:51.336Z,21.59
2019-04-21T10:36:51.320Z,21.64
2019-04-21T10:38:05.552Z,21.74
2019-04-21T10:38:53.950Z,21.75
2019-04-21T10:39:51.564Z,21.91
2019-04-21T10:40:51.744Z,21.75
2019-04-21T10:41:51.265Z,21.81
2019-04-21T10:42:52.284Z,21.83
2019-04-21T10:43:51.407Z,21.82
2019-04-21T10:44:52.628Z,21.97
2019-04-21T10:45:51.223Z,21.97
2019-04-21T10:46:52.527Z,22.04
2019-04-21T10:47:52.702Z,21.91
2019-04-21T10:48:51.190Z,21.90
2019-04-21T10:49:51.199Z,21.82
2019-04-21T10:50:51.171Z,21.78
2019-04-21T10:51:51.158Z,21.91
2019-04-21T10:52:51.156Z,21.97
2019-04-21T10:53:52.867Z,21.95
2019-04-21T10:55:11.239Z,22.04
2019-04-21T10:56:06.471Z,22.07
2019-04-21T10:56:52.608Z,22.09
2019-04-21T10:57:51.093Z,22.13
2019-04-21T10:58:52.177Z,22.06
2019-04-21T10:59:54.113Z,21.97
2019-04-21T11:00:52.687Z,21.85
2019-04-21T11:01:51.066Z,21.82
2019-04-21T11:02:51.042Z,21.74
2019-04-21T11:03:51.034Z,21.66
2019-04-21T11:04:51.133Z,21.46
2019-04-21T11:05:51.008Z,21.51
2019-04-21T11:06:50.997Z,21.38
2019-04-21T11:08:01.199Z,21.26
2019-04-21T11:08:55.370Z,21.14
2019-04-21T11:09:51.865Z,21.34
2019-04-21T11:10:51.925Z,21.38
2019-04-21T11:11:53.196Z,21.41
2019-04-21T11:12:50.937Z,21.48
2019-04-21T11:13:50.935Z,21.56
2019-04-21T11:14:51.448Z,21.53
2019-04-21T11:15:50.992Z,21.48
2019-04-21T11:16:52.592Z,21.32
2019-04-21T11:17:52.237Z,21.23
2019-04-21T11:18:51.607Z,21.20
2019-04-21T11:19:50.869Z,21.13
2019-04-21T11:20:51.216Z,21.13
2019-04-21T11:21:50.842Z,21.21
2019-04-21T11:22:51.387Z,21.41
2019-04-21T11:23:52.106Z,21.46
2019-04-21T11:24:51.123Z,21.64
2019-04-21T11:25:51.702Z,21.75
2019-04-21T11:26:51.951Z,21.81
2019-04-21T11:27:51.180Z,21.97
2019-04-21T11:28:50.764Z,21.91
2019-04-21T11:29:51.690Z,21.81
2019-04-21T11:30:51.019Z,21.75
2019-04-21T11:31:51.375Z,21.69
2019-04-21T11:32:51.113Z,21.67
2019-04-21T11:33:51.228Z,21.72
2019-04-21T11:34:51.503Z,21.79
2019-04-21T11:35:51.244Z,21.71
2019-04-21T11:36:50.696Z,21.76
2019-04-21T11:37:50.680Z,21.75
2019-04-21T11:39:07.253Z,21.71
2019-04-21T11:39:57.963Z,21.74
2019-04-21T11:40:51.849Z,21.78
2019-04-21T11:41:51.902Z,21.57
2019-04-21T11:42:51.563Z,21.51
2019-04-21T11:43:50.898Z,21.46
2019-04-21T11:44:51.493Z,21.44
2019-04-21T11:45:50.578Z,21.35
2019-04-21T11:46:50.567Z,21.30
2019-04-21T11:47:50.559Z,21.38
2019-04-21T11:48:50.576Z,21.38
2019-04-21T11:49:50.548Z,21.38
2019-04-21T11:50:50.949Z,21.51
2019-04-21T11:51:51.168Z,21.50
2019-04-21T11:52:50.516Z,21.61
2019-04-21T11:53:50.805Z,21.59
2019-04-21T11:54:50.931Z,21.79
2019-04-21T11:55:53.197Z,21.76
2019-04-21T11:56:50.680Z,21.85
2019-04-21T11:57:52.819Z,21.81
2019-04-21T11:58:50.433Z,21.72
2019-04-21T11:59:51.394Z,21.90
2019-04-21T12:00:52.045Z,21.94
2019-04-21T12:01:51.728Z,21.99
2019-04-21T12:02:51.205Z,22.13
2019-04-21T12:03:51.722Z,22.20
2019-04-21T12:04:51.587Z,22.16
2019-04-21T12:05:51.192Z,22.25
2019-04-21T12:06:52.204Z,22.14
2019-04-21T12:07:51.335Z,22.10
2019-04-21T12:08:52.960Z,22.10
2019-04-21T12:09:51.303Z,22.06
2019-04-21T12:10:51.479Z,22.04
2019-04-21T12:11:51.440Z,21.99
2019-04-21T12:12:50.983Z,21.97
2019-04-21T12:13:50.284Z,21.92
2019-04-21T12:14:50.332Z,21.94
2019-04-21T12:15:50.251Z,21.82
2019-04-21T12:16:50.895Z,21.79
2019-04-21T12:17:50.246Z,21.82
2019-04-21T12:18:51.007Z,21.88
2019-04-21T12:19:50.669Z,21.90
2019-04-21T12:20:51.337Z,21.94
2019-04-21T12:22:02.866Z,22.04
2019-04-21T12:22:51.172Z,22.09
2019-04-21T12:23:50.310Z,22.10
2019-04-21T12:24:51.307Z,22.17
2019-04-21T12:25:51.458Z,22.27
2019-04-21T12:26:50.146Z,22.32
2019-04-21T12:27:50.119Z,22.34
2019-04-21T12:28:50.241Z,22.25
2019-04-21T12:29:51.588Z,22.31
2019-04-21T12:30:50.092Z,22.37
2019-04-21T12:31:50.097Z,22.43
2019-04-21T12:32:50.071Z,22.49
2019-04-21T12:33:50.073Z,22.46
2019-04-21T12:34:51.829Z,22.43
2019-04-21T12:35:51.456Z,22.31
2019-04-21T12:36:50.755Z,22.34
2019-04-21T12:37:51.069Z,22.28
2019-04-21T12:38:55.758Z,22.38
2019-04-21T12:39:50.990Z,22.37
2019-04-21T12:40:50.785Z,22.39
2019-04-21T12:41:50.779Z,22.57
2019-04-21T12:42:50.447Z,22.44
2019-04-21T12:43:50.753Z,22.53
2019-04-21T12:44:49.941Z,22.54
2019-04-21T12:45:49.928Z,22.60
2019-04-21T12:46:49.920Z,22.64
2019-04-21T12:47:50.702Z,22.64
2019-04-21T12:48:49.898Z,22.50
2019-04-21T12:49:49.922Z,22.50
2019-04-21T12:50:49.983Z,22.49
2019-04-21T12:51:49.863Z,22.44
2019-04-21T12:52:49.852Z,22.50
2019-04-21T12:53:49.917Z,22.50
2019-04-21T12:54:49.831Z,22.54
2019-04-21T12:55:50.011Z,22.56
2019-04-21T12:56:49.851Z,22.64
2019-04-21T12:57:49.804Z,22.69
2019-04-21T12:58:51.246Z,22.67
2019-04-21T12:59:50.917Z,22.62
2019-04-21T13:00:50.206Z,22.53
2019-04-21T13:01:50.737Z,22.49
2019-04-21T13:02:49.887Z,22.52
2019-04-21T13:03:50.007Z,22.43
2019-04-21T13:04:50.905Z,22.35
2019-04-21T13:05:49.716Z,22.32
2019-04-21T13:06:49.947Z,22.29
2019-04-21T13:07:49.706Z,22.44
2019-04-21T13:08:55.633Z,22.54
2019-04-21T13:09:50.674Z,22.57
2019-04-21T13:10:49.663Z,22.62
2019-04-21T13:11:50.903Z,22.62
2019-04-21T13:12:50.054Z,22.56
2019-04-21T13:13:50.170Z,22.52
2019-04-21T13:14:49.671Z,22.64
2019-04-21T13:15:49.607Z,22.60
2019-04-21T13:16:49.748Z,22.62
2019-04-21T13:17:50.231Z,22.60
2019-04-21T13:18:49.573Z,22.60
2019-04-21T13:19:49.677Z,22.31
2019-04-21T13:20:49.555Z,22.43
2019-04-21T13:21:49.900Z,22.46
2019-04-21T13:22:50.278Z,22.60
2019-04-21T13:23:50.474Z,22.60
2019-04-21T13:24:49.647Z,22.62
2019-04-21T13:25:49.887Z,22.59
2019-04-21T13:26:55.644Z,22.52
2019-04-21T13:27:50.480Z,22.47
2019-04-21T13:28:50.098Z,22.54
2019-04-21T13:29:50.376Z,22.52
2019-04-21T13:30:50.613Z,22.57
2019-04-21T13:31:50.040Z,22.64
2019-04-21T13:32:49.428Z,22.65
2019-04-21T13:33:50.207Z,22.60
2019-04-21T13:34:50.870Z,22.60
2019-04-21T13:35:50.797Z,22.65
2019-04-21T13:36:49.821Z,22.75
2019-04-21T13:37:50.648Z,22.59
2019-04-21T13:39:15.665Z,22.64
2019-04-21T13:40:19.508Z,22.65
2019-04-21T13:41:04.947Z,22.62
2019-04-21T13:42:02.731Z,22.62
2019-04-21T13:42:55.307Z,22.75
2019-04-21T13:43:50.856Z,22.60
2019-04-21T13:44:50.843Z,22.62
2019-04-21T13:45:49.916Z,22.69
2019-04-21T13:46:49.373Z,22.71
2019-04-21T13:47:50.390Z,22.77
2019-04-21T13:48:50.677Z,22.82
2019-04-21T13:49:49.582Z,22.60
2019-04-21T13:50:49.234Z,22.49
2019-04-21T13:51:50.053Z,22.59
2019-04-21T13:52:49.212Z,22.52
2019-04-21T13:53:49.496Z,22.60
2019-04-21T13:54:49.633Z,22.54
2019-04-21T13:55:50.727Z,22.56
2019-04-21T13:56:50.390Z,22.65
2019-04-21T13:57:50.514Z,22.65
2019-04-21T13:58:50.420Z,22.68
2019-04-21T13:59:49.617Z,22.60